Time;durP1;ratioP1;P1;durP2;ratioP2;P2;SDS_P1;SDS_P2;PMS_P1;PMS_P2;Temp;Humidity;BMP_temperature;BMP_pressure;BME280_temperature;BME280_humidity;BME280_pressure;Samples;Min_cycle;Max_cycle;Signal;HPM_P1;HPM_P2
2022/12/09 00:02:05;;;;;;;15.68;5.82;;;;;;;3.99;100.00;99456.00;6347882;28;20045;-75
2022/12/09 00:05:06;;;;;;;12.98;6.53;;;;;;;3.98;100.00;99462.91;6346963;28;20036;-77
2022/12/09 00:08:09;;;;;;;8.10;4.75;;;;;;;4.01;100.00;99462.78;6346646;28;20056;-77
2022/12/09 00:11:10;;;;;;;9.25;5.63;;;;;;;4.06;100.00;99477.22;6381112;27;20055;-77
2022/12/09 00:14:11;;;;;;;10.80;5.60;;;;;;;4.04;100.00;99478.16;6346648;28;20050;-77
2022/12/09 00:17:12;;;;;;;11.82;5.93;;;;;;;4.06;100.00;99470.34;6346575;28;20104;-77
2022/12/09 00:20:15;;;;;;;12.25;5.13;;;;;;;4.11;100.00;99467.56;6346662;28;20475;-75
2022/12/09 00:23:16;;;;;;;15.00;5.43;;;;;;;4.12;100.00;99470.06;6346248;28;20036;-75
2022/12/09 00:26:21;;;;;;;10.65;5.90;;;;;;;4.01;100.00;99467.94;6347479;28;20040;-75
2022/12/09 00:29:22;;;;;;;9.88;5.22;;;;;;;4.03;100.00;99470.47;6347459;28;20048;-75
2022/12/09 00:32:22;;;;;;;18.58;5.82;;;;;;;4.09;100.00;99477.94;6346173;28;20042;-75
2022/12/09 00:35:23;;;;;;;16.05;5.43;;;;;;;4.14;100.00;99482.91;6346204;28;20395;-75
2022/12/09 00:38:24;;;;;;;9.40;5.07;;;;;;;4.15;100.00;99472.50;6364100;27;20047;-75
2022/12/09 00:41:26;;;;;;;10.40;5.07;;;;;;;4.12;100.00;99464.91;6346091;28;20059;-75
2022/12/09 00:44:27;;;;;;;14.30;5.57;;;;;;;4.24;100.00;99476.44;6346040;28;20043;-75
2022/12/09 00:47:28;;;;;;;8.20;5.10;;;;;;;4.27;100.00;99467.72;6346172;28;20063;-76
2022/12/09 00:50:28;;;;;;;8.88;5.10;;;;;;;4.19;100.00;99478.38;6351198;28;20043;-77
2022/12/09 00:53:29;;;;;;;11.25;5.38;;;;;;;4.13;100.00;99496.72;6345954;28;20064;-77
2022/12/09 00:56:30;;;;;;;8.60;4.07;;;;;;;4.23;100.00;99505.75;6347154;28;20588;-77
2022/12/09 00:59:31;;;;;;;7.93;5.43;;;;;;;4.09;100.00;99508.09;6347106;28;20538;-77
2022/12/09 01:02:32;;;;;;;19.80;5.43;;;;;;;4.16;100.00;99524.97;6346842;28;20042;-75
2022/12/09 01:05:36;;;;;;;12.05;6.10;;;;;;;4.14;100.00;99522.50;6346969;28;20131;-77
2022/12/09 01:08:37;;;;;;;11.40;5.60;;;;;;;4.13;100.00;99517.38;6328945;28;20070;-77
2022/12/09 01:11:38;;;;;;;12.77;6.05;;;;;;;4.17;100.00;99508.59;6346930;28;20558;-78
2022/12/09 01:14:38;;;;;;;8.20;4.28;;;;;;;4.11;100.00;99506.28;6365935;27;20055;-77
2022/12/09 01:17:39;;;;;;;5.90;4.35;;;;;;;3.96;100.00;99502.63;6370959;28;20042;-77
2022/12/09 01:20:40;;;;;;;10.55;4.90;;;;;;;4.00;100.00;99509.34;6372488;27;20035;-77
2022/12/09 01:23:41;;;;;;;9.30;4.53;;;;;;;3.91;100.00;99512.28;6372227;27;20043;-77
2022/12/09 01:26:41;;;;;;;11.05;5.90;;;;;;;3.98;100.00;99511.13;6371119;28;20118;-77
2022/12/09 01:29:42;;;;;;;11.63;4.30;;;;;;;3.91;100.00;99520.03;6370962;28;20100;-75
2022/12/09 01:32:43;;;;;;;9.60;4.78;;;;;;;3.93;100.00;99511.34;6371997;28;20039;-75
2022/12/09 01:35:46;;;;;;;7.88;3.65;;;;;;;3.89;100.00;99499.47;6370867;28;20114;-75
2022/12/09 01:38:47;;;;;;;7.35;3.70;;;;;;;3.95;100.00;99508.66;6370752;28;20504;-75
2022/12/09 01:41:50;;;;;;;7.32;4.15;;;;;;;3.98;100.00;99508.56;6370782;28;20099;-75
2022/12/09 01:45:18;;;;;;;6.38;3.83;;;;;;;3.99;100.00;99505.06;6370653;28;20046;-76
2022/12/09 01:48:24;;;;;;;10.57;6.03;;;;;;;3.97;100.00;99504.28;6370764;28;20047;-75
2022/12/09 01:51:24;;;;;;;9.20;4.47;;;;;;;3.98;100.00;99501.66;6372333;27;20032;-75
2022/12/09 01:54:25;;;;;;;9.30;4.65;;;;;;;3.95;100.00;99504.34;6370546;28;20062;-75
2022/12/09 01:57:26;;;;;;;18.35;5.75;;;;;;;3.97;100.00;99504.28;6371791;27;20043;-75
2022/12/09 02:00:27;;;;;;;7.25;4.22;;;;;;;4.08;100.00;99511.56;6371967;27;20509;-77
2022/12/09 02:03:28;;;;;;;10.88;4.22;;;;;;;3.98;100.00;99498.22;6370624;28;20078;-77
2022/12/09 02:06:29;;;;;;;10.13;4.63;;;;;;;3.98;100.00;99514.56;6373603;27;20035;-77
2022/12/09 02:09:31;;;;;;;7.28;5.03;;;;;;;4.02;100.00;99510.09;6376358;27;20071;-77
2022/12/09 02:12:58;;;;;;;8.43;4.63;;;;;;;4.01;100.00;99511.00;6375160;27;20039;-77
2022/12/09 02:16:04;;;;;;;5.15;2.90;;;;;;;3.89;100.00;99512.38;6350869;28;20057;-77
2022/12/09 02:19:47;;;;;;;9.82;3.45;;;;;;;3.91;100.00;99502.81;6366348;27;20047;-77
2022/12/09 02:22:54;;;;;;;;;;;;;;;3.95;100.00;99503.50;6350991;28;20096;-77
2022/12/09 02:26:27;;;;;;;5.47;2.13;;;;;;;3.94;100.00;99504.44;6350610;27;19982;-77
2022/12/09 02:29:47;;;;;;;6.93;3.53;;;;;;;3.74;100.00;99495.78;6350589;28;20114;-77
2022/12/09 02:33:17;;;;;;;6.07;3.00;;;;;;;3.82;100.00;99505.78;6349157;28;20489;-77
2022/12/09 02:36:22;;;;;;;8.45;4.05;;;;;;;3.80;100.00;99505.00;6348168;28;20063;-77
2022/12/09 02:39:38;;;;;;;5.80;2.65;;;;;;;3.70;100.00;99504.53;6383470;27;20411;-77
2022/12/09 02:42:40;;;;;;;6.07;3.80;;;;;;;3.75;100.00;99499.22;6383155;27;20059;-77
2022/12/09 02:45:43;;;;;;;12.00;5.03;;;;;;;3.84;100.00;99502.22;6383039;27;20399;-77
2022/12/09 02:48:53;;;;;;;12.13;4.22;;;;;;;3.95;100.00;99504.34;6383270;27;20055;-77
2022/12/09 02:51:56;;;;;;;15.02;3.75;;;;;;;4.02;100.00;99489.44;6349994;28;20483;-78
2022/12/09 02:54:59;;;;;;;;;;;;;;;4.07;100.00;99500.41;6349074;28;20039;-77
2022/12/09 02:58:03;;;;;;;7.97;3.80;;;;;;;3.93;100.00;99510.47;6348332;28;19965;-77
2022/12/09 03:01:18;;;;;;;8.60;4.43;;;;;;;3.99;100.00;99513.63;6348577;28;20404;-77
2022/12/09 03:04:25;;;;;;;9.13;4.47;;;;;;;3.90;100.00;99516.63;6348388;28;20044;-77
2022/12/09 03:07:40;;;;;;;12.45;4.45;;;;;;;3.87;100.00;99514.19;6349724;28;20387;-77
2022/12/09 03:11:10;;;;;;;7.75;4.78;;;;;;;3.90;100.00;99511.44;6348439;28;20088;-77
2022/12/09 03:14:24;;;;;;;10.13;4.68;;;;;;;3.96;100.00;99500.03;6345675;28;20074;-77
2022/12/09 03:17:34;;;;;;;9.20;4.53;;;;;;;3.91;100.00;99501.97;6349581;28;20126;-77
2022/12/09 03:20:39;;;;;;;8.10;3.92;;;;;;;3.97;100.00;99493.97;6349233;28;20399;-77
2022/12/09 03:23:45;;;;;;;16.13;5.15;;;;;;;4.00;100.00;99504.16;6347835;28;20050;-77
2022/12/09 03:26:47;;;;;;;12.30;5.10;;;;;;;4.06;100.00;99508.22;6347810;28;20043;-77
2022/12/09 03:29:49;;;;;;;;;;;;;;;3.97;100.00;99510.28;6382640;27;20047;-75
2022/12/09 03:32:51;;;;;;;19.88;3.85;;;;;;;4.03;100.00;99515.19;6347354;28;20405;-75
2022/12/09 03:35:56;;;;;;;16.52;6.03;;;;;;;4.09;100.00;99505.50;6347458;28;20040;-75
2022/12/09 03:38:57;;;;;;;11.60;5.28;;;;;;;4.01;100.00;99500.66;6330307;28;20096;-75
2022/12/09 03:42:02;;;;;;;12.15;5.35;;;;;;;4.08;100.00;99514.16;6348690;28;20043;-75
2022/12/09 03:45:09;;;;;;;19.98;6.10;;;;;;;4.15;100.00;99520.75;6347249;28;20519;-77
2022/12/09 03:48:11;;;;;;;14.10;5.40;;;;;;;4.13;100.00;99525.97;6348537;28;20092;-77
2022/12/09 03:51:26;;;;;;;12.00;5.38;;;;;;;4.14;100.00;99513.88;6348546;28;20050;-77
2022/12/09 03:54:34;;;;;;;20.17;5.05;;;;;;;4.06;100.00;99510.78;6348495;28;20407;-77
2022/12/09 03:57:38;;;;;;;8.05;4.30;;;;;;;4.08;100.00;99511.56;6348212;28;20118;-77
2022/12/09 04:00:39;;;;;;;18.10;5.97;;;;;;;4.07;100.00;99510.72;6348317;27;20054;-75
2022/12/09 04:03:44;;;;;;;11.55;5.43;;;;;;;4.10;100.00;99515.78;6348155;28;20040;-76
2022/12/09 04:06:46;;;;;;;14.10;6.22;;;;;;;4.06;100.00;99515.94;6347858;28;20044;-76
2022/12/09 04:09:47;;;;;;;15.35;5.72;;;;;;;4.06;100.00;99506.50;6347748;28;20411;-78
2022/12/09 04:12:48;;;;;;;17.38;5.78;;;;;;;4.15;100.00;99515.56;6346680;28;20063;-77
2022/12/09 04:15:49;;;;;;;11.80;5.63;;;;;;;4.21;100.00;99500.66;6363625;27;20052;-77
2022/12/09 04:18:49;;;;;;;17.10;6.00;;;;;;;4.17;100.00;99514.59;6346809;28;20035;-77
2022/12/09 04:21:50;;;;;;;12.07;5.13;;;;;;;4.23;100.00;99516.09;6347671;28;20487;-77
2022/12/09 04:24:51;;;;;;;10.20;4.00;;;;;;;4.26;100.00;99517.69;6346314;28;20042;-76
2022/12/09 04:27:52;;;;;;;16.00;6.28;;;;;;;4.25;100.00;99524.59;6345915;28;20120;-75
2022/12/09 04:30:53;;;;;;;14.93;5.53;;;;;;;4.19;100.00;99514.53;6347569;28;20046;-78
2022/12/09 04:33:54;;;;;;;13.15;5.13;;;;;;;4.11;100.00;99524.34;6347667;28;20040;-78
2022/12/09 04:36:54;;;;;;;25.27;6.68;;;;;;;4.06;100.00;99523.69;6346165;28;20058;-78
2022/12/09 04:39:55;;;;;;;15.50;5.53;;;;;;;4.08;100.00;99529.63;6365406;27;20091;-77
2022/12/09 04:42:57;;;;;;;14.23;6.00;;;;;;;4.14;100.00;99526.78;6372722;27;20043;-75
2022/12/09 04:46:03;;;;;;;15.40;5.70;;;;;;;4.13;100.00;99522.53;6371416;27;20406;-75
2022/12/09 04:49:04;;;;;;;12.07;5.68;;;;;;;4.16;100.00;99520.69;6372697;27;20361;-75
2022/12/09 04:52:05;;;;;;;15.90;6.40;;;;;;;4.15;100.00;99518.97;6372489;27;20110;-75
2022/12/09 04:55:06;;;;;;;17.42;5.88;;;;;;;4.24;100.00;99515.16;6372433;27;20122;-75
2022/12/09 04:58:07;;;;;;;15.40;5.68;;;;;;;4.25;100.00;99522.03;6372461;27;20039;-75
2022/12/09 05:01:10;;;;;;;26.65;6.55;;;;;;;4.27;100.00;99524.53;6372606;27;20119;-75
2022/12/09 05:04:11;;;;;;;16.30;4.97;;;;;;;4.22;100.00;99524.72;6371240;28;20054;-75
2022/12/09 05:07:12;;;;;;;15.77;5.70;;;;;;;4.22;100.00;99522.13;6353987;28;20477;-75
2022/12/09 05:10:13;;;;;;;29.20;7.57;;;;;;;4.27;100.00;99524.53;6371223;28;20411;-75
2022/12/09 05:13:14;;;;;;;16.80;7.68;;;;;;;4.26;100.00;99525.44;6354007;28;20054;-75
2022/12/09 05:16:17;;;;;;;15.05;4.82;;;;;;;4.25;100.00;99519.44;6367506;27;20043;-75
2022/12/09 05:19:17;;;;;;;6.90;3.90;;;;;;;4.19;100.00;99514.53;6354557;28;20099;-75
2022/12/09 05:22:18;;;;;;;8.55;4.65;;;;;;;4.19;100.00;99517.13;6350050;28;20043;-78
2022/12/09 05:25:19;;;;;;;11.13;5.13;;;;;;;4.17;100.00;99514.59;6350735;27;20036;-77
2022/12/09 05:28:20;;;;;;;14.10;4.95;;;;;;;4.27;100.00;99511.63;6345741;28;20050;-77
2022/12/09 05:31:22;;;;;;;17.02;7.13;;;;;;;4.35;100.00;99522.47;6345634;28;20039;-78
2022/12/09 05:34:22;;;;;;;15.48;6.63;;;;;;;4.30;100.00;99514.91;6340393;28;20100;-78
2022/12/09 05:37:23;;;;;;;17.70;6.45;;;;;;;4.41;100.00;99533.34;6389444;27;20093;-77
2022/12/09 05:40:24;;;;;;;10.98;5.95;;;;;;;4.40;100.00;99533.41;6382985;27;20069;-77
2022/12/09 05:43:25;;;;;;;16.02;6.65;;;;;;;4.37;100.00;99533.56;6367423;27;20486;-77
2022/12/09 05:46:26;;;;;;;12.90;5.85;;;;;;;4.33;100.00;99537.19;6351423;28;20044;-75
2022/12/09 05:49:28;;;;;;;14.25;6.10;;;;;;;4.33;100.00;99526.84;6357569;27;20039;-75
2022/12/09 05:52:28;;;;;;;15.20;5.13;;;;;;;4.30;100.00;99521.81;6366515;27;20031;-75
2022/12/09 05:55:29;;;;;;;12.82;5.97;;;;;;;4.29;100.00;99520.16;6363116;27;20047;-75
2022/12/09 05:58:30;;;;;;;12.20;6.38;;;;;;;4.25;100.00;99516.84;6376994;27;20446;-76
2022/12/09 06:01:31;;;;;;;16.38;6.40;;;;;;;4.28;100.00;99508.13;6376188;27;20035;-75
2022/12/09 06:04:31;;;;;;;12.05;5.25;;;;;;;4.30;100.00;99516.66;6376191;27;20035;-75
2022/12/09 06:07:33;;;;;;;18.50;6.22;;;;;;;4.32;100.00;99510.50;6375906;27;20459;-77
2022/12/09 06:10:38;;;;;;;22.98;7.53;;;;;;;4.34;100.00;99518.19;6376227;27;20047;-77
2022/12/09 06:13:39;;;;;;;10.65;4.90;;;;;;;4.35;100.00;99510.38;6376526;27;20031;-77
2022/12/09 06:16:40;;;;;;;17.65;7.05;;;;;;;4.34;100.00;99513.84;6376123;27;20060;-77
2022/12/09 06:19:41;;;;;;;22.63;7.55;;;;;;;4.36;100.00;99504.28;6375827;27;20031;-75
2022/12/09 06:22:42;;;;;;;18.48;7.55;;;;;;;4.33;100.00;99501.03;6357501;27;20053;-78
2022/12/09 06:25:44;;;;;;;36.60;8.05;;;;;;;4.34;100.00;99508.69;6374270;27;20080;-75
2022/12/09 06:28:45;;;;;;;16.08;6.82;;;;;;;4.44;100.00;99514.28;6374540;27;20053;-75
2022/12/09 06:31:46;;;;;;;13.70;6.35;;;;;;;4.40;100.00;99515.34;6374643;27;20050;-75
2022/12/09 06:34:47;;;;;;;22.02;7.10;;;;;;;4.40;100.00;99510.16;6374441;27;20394;-77
2022/12/09 06:37:51;;;;;;;23.58;8.20;;;;;;;4.41;100.00;99512.69;6375577;27;20039;-75
2022/12/09 06:40:52;;;;;;;34.63;12.70;;;;;;;4.41;100.00;99504.94;6375339;27;20118;-75
2022/12/09 06:43:56;;;;;;;19.83;9.35;;;;;;;4.48;100.00;99500.34;6375429;27;20043;-75
2022/12/09 06:46:56;;;;;;;13.90;6.68;;;;;;;4.57;100.00;99505.09;6356840;27;20478;-78
2022/12/09 06:50:00;;;;;;;19.67;7.22;;;;;;;4.62;100.00;99491.97;6374107;27;20491;-77
2022/12/09 06:53:01;;;;;;;21.35;7.90;;;;;;;4.67;100.00;99499.50;6373673;27;20118;-77
2022/12/09 06:56:04;;;;;;;23.67;9.75;;;;;;;4.69;100.00;99503.69;6375027;27;20058;-77
2022/12/09 06:59:07;;;;;;;24.08;9.07;;;;;;;4.75;100.00;99510.34;6373652;27;20091;-78
2022/12/09 07:02:09;;;;;;;30.33;10.40;;;;;;;4.75;100.00;99513.75;6374845;27;20114;-75
2022/12/09 07:05:10;;;;;;;32.22;11.98;;;;;;;4.80;100.00;99509.22;6374799;27;20035;-77
2022/12/09 07:08:11;;;;;;;27.73;10.60;;;;;;;4.79;100.00;99512.69;6373379;27;20054;-75
2022/12/09 07:11:11;;;;;;;21.83;9.85;;;;;;;4.85;100.00;99511.59;6373524;27;20118;-75
2022/12/09 07:14:14;;;;;;;23.98;9.45;;;;;;;4.89;100.00;99500.19;6373458;27;20035;-75
2022/12/09 07:17:16;;;;;;;12.75;7.75;;;;;;;4.89;100.00;99494.19;6374453;27;20039;-75
2022/12/09 07:20:17;;;;;;;13.25;5.57;;;;;;;4.92;100.00;99500.06;6373346;27;20043;-75
2022/12/09 07:23:18;;;;;;;16.65;8.02;;;;;;;4.85;100.00;99501.25;6374353;27;20035;-75
2022/12/09 07:26:19;;;;;;;19.50;8.35;;;;;;;4.87;100.00;99490.84;6355689;27;20418;-75
2022/12/09 07:29:20;;;;;;;26.33;8.95;;;;;;;4.91;100.00;99495.78;6374334;27;20039;-77
2022/12/09 07:32:20;;;;;;;29.58;9.40;;;;;;;4.90;100.00;99493.28;6407626;27;20039;-75
2022/12/09 07:35:21;;;;;;;28.67;8.15;;;;;;;4.86;100.00;99482.25;6374112;27;20061;-75
2022/12/09 07:38:23;;;;;;;24.10;7.22;;;;;;;4.89;100.00;99481.28;6373994;27;20122;-75
2022/12/09 07:41:25;;;;;;;20.45;8.10;;;;;;;4.88;100.00;99480.44;6374036;27;20478;-75
2022/12/09 07:44:27;;;;;;;26.52;12.43;;;;;;;5.02;100.00;99477.19;6372798;27;20046;-78
2022/12/09 07:47:27;;;;;;;38.10;11.68;;;;;;;5.05;100.00;99471.88;6372589;27;20046;-75
2022/12/09 07:50:28;;;;;;;16.40;7.70;;;;;;;4.98;100.00;99467.91;6355458;27;20043;-75
2022/12/09 07:53:30;;;;;;;23.48;7.60;;;;;;;5.03;100.00;99469.38;6373740;27;20050;-75
2022/12/09 07:56:33;;;;;;;15.50;7.07;;;;;;;5.02;100.00;99459.94;6373608;27;20039;-76
2022/12/09 07:59:34;;;;;;;11.75;5.75;;;;;;;4.85;100.00;99450.38;6373341;27;20696;-75
2022/12/09 08:02:35;;;;;;;14.38;6.03;;;;;;;4.98;100.00;99445.50;6371763;27;20040;-77
2022/12/09 08:05:35;;;;;;;15.45;7.15;;;;;;;5.02;100.00;99441.00;6373249;27;20044;-75
2022/12/09 08:08:36;;;;;;;34.30;7.00;;;;;;;5.02;100.00;99453.91;6406419;27;20494;-75
2022/12/09 08:11:40;;;;;;;20.50;8.13;;;;;;;5.02;100.00;99462.53;6406697;27;20071;-75
2022/12/09 08:14:40;;;;;;;18.27;6.88;;;;;;;5.10;100.00;99466.50;6373349;27;20034;-75
2022/12/09 08:17:41;;;;;;;18.63;7.80;;;;;;;5.18;100.00;99469.53;6406623;27;20064;-77
2022/12/09 08:20:42;;;;;;;18.20;5.72;;;;;;;5.20;100.00;99467.72;6373077;27;20043;-75
2022/12/09 08:23:43;;;;;;;17.38;6.75;;;;;;;5.27;100.00;99468.25;6372145;27;20483;-75
2022/12/09 08:26:43;;;;;;;16.02;6.38;;;;;;;5.24;100.00;99464.06;6354363;27;20055;-75
2022/12/09 08:29:45;;;;;;;34.40;10.27;;;;;;;5.33;100.00;99463.63;6372771;27;20043;-75
2022/12/09 08:32:46;;;;;;;24.00;9.45;;;;;;;5.37;100.00;99467.72;6371398;27;20086;-75
2022/12/09 08:35:47;;;;;;;19.83;6.70;;;;;;;5.38;100.00;99463.41;6372891;27;20092;-77
2022/12/09 08:38:48;;;;;;;18.65;7.22;;;;;;;5.37;100.00;99462.56;6371463;27;20035;-77
2022/12/09 08:41:49;;;;;;;19.38;6.82;;;;;;;5.44;100.00;99468.28;6371391;27;20107;-75
2022/12/09 08:44:49;;;;;;;18.02;7.32;;;;;;;5.40;100.00;99466.75;6372537;27;20043;-78
2022/12/09 08:47:50;;;;;;;28.45;9.82;;;;;;;5.41;100.00;99464.06;6354027;27;20051;-78
2022/12/09 08:50:52;;;;;;;23.17;9.52;;;;;;;5.37;100.00;99459.13;6371305;27;20047;-75
2022/12/09 08:53:54;;;;;;;19.13;7.63;;;;;;;5.39;100.00;99449.53;6371212;27;20043;-75
2022/12/09 08:56:55;;;;;;;18.83;7.07;;;;;;;5.48;100.00;99441.34;6372537;27;20073;-75
2022/12/09 08:59:56;;;;;;;24.95;6.88;;;;;;;5.54;100.00;99443.63;6353878;27;20524;-75
2022/12/09 09:02:56;;;;;;;21.45;6.63;;;;;;;5.56;100.00;99439.22;6372409;27;20553;-75
2022/12/09 09:06:04;;;;;;;16.40;6.95;;;;;;;5.52;100.00;99424.75;6372255;27;20040;-75
2022/12/09 09:09:07;;;;;;;23.95;7.53;;;;;;;5.51;100.00;99428.25;6370834;28;20296;-75
2022/12/09 09:12:08;;;;;;;26.63;9.30;;;;;;;5.45;100.00;99423.38;6371094;28;20046;-76
2022/12/09 09:15:09;;;;;;;24.27;9.48;;;;;;;5.40;100.00;99408.09;6373494;27;20047;-75
2022/12/09 09:18:10;;;;;;;30.40;11.32;;;;;;;5.38;100.00;99416.84;6376359;27;20050;-75
2022/12/09 09:21:13;;;;;;;15.43;6.82;;;;;;;5.43;100.00;99418.25;6377307;27;20035;-75
2022/12/09 09:24:16;;;;;;;24.80;8.85;;;;;;;5.45;100.00;99407.84;6376251;27;20069;-75
2022/12/09 09:27:17;;;;;;;15.02;7.55;;;;;;;5.53;100.00;99404.88;6358738;27;20650;-75
2022/12/09 09:30:18;;;;;;;29.23;11.13;;;;;;;5.52;100.00;99396.28;6376090;27;20054;-75
2022/12/09 09:33:18;;;;;;;22.02;9.55;;;;;;;5.55;100.00;99384.94;6376057;27;20039;-75
2022/12/09 09:36:22;;;;;;;22.70;8.77;;;;;;;5.58;100.00;99387.34;6377211;27;20546;-75
2022/12/09 09:39:23;;;;;;;23.70;8.48;;;;;;;5.69;100.00;99374.72;6375728;27;20043;-75
2022/12/09 09:42:44;;;;;;;18.67;7.75;;;;;;;5.67;100.00;99360.19;6375622;27;20543;-75
2022/12/09 09:45:45;;;;;;;26.08;8.93;;;;;;;5.72;100.00;99361.59;6376860;27;20035;-75
2022/12/09 09:48:48;;;;;;;20.45;8.15;;;;;;;5.57;100.00;99357.22;6376660;27;20047;-75
2022/12/09 09:51:49;;;;;;;16.10;8.23;;;;;;;5.52;100.00;99349.72;6375629;27;20497;-76
2022/12/09 09:54:51;;;;;;;14.80;6.32;;;;;;;5.56;100.00;99340.88;6376851;27;20066;-75
2022/12/09 09:58:12;;;;;;;10.83;6.00;;;;;;;5.57;100.00;99339.94;6376408;27;20398;-75
2022/12/09 10:01:17;;;;;;;17.40;8.40;;;;;;;5.58;100.00;99333.88;6376581;27;20049;-75
2022/12/09 10:04:41;;;;;;;21.45;7.82;;;;;;;5.57;100.00;99329.59;6376592;27;20043;-75
2022/12/09 10:07:45;;;;;;;19.70;7.57;;;;;;;5.59;100.00;99321.75;6376444;27;20096;-76
2022/12/09 10:11:13;;;;;;;13.07;6.93;;;;;;;5.62;100.00;99311.22;6376218;27;20051;-75
2022/12/09 10:14:26;;;;;;;18.08;6.60;;;;;;;5.62;100.00;99304.31;6374887;27;20043;-75
2022/12/09 10:17:34;;;;;;;13.20;7.32;;;;;;;5.77;100.00;99291.50;6374848;27;20150;-76
2022/12/09 10:20:37;;;;;;;20.67;6.50;;;;;;;5.72;100.00;99289.13;6374775;27;20045;-75
2022/12/09 10:23:37;;;;;;;10.60;5.30;;;;;;;5.73;100.00;99272.69;6374755;27;20410;-75
2022/12/09 10:26:39;;;;;;;20.13;7.88;;;;;;;5.64;100.00;99267.97;6390983;27;20055;-75
2022/12/09 10:29:57;;;;;;;12.75;6.28;;;;;;;5.69;100.00;99258.25;6374489;27;20043;-75
2022/12/09 10:32:58;;;;;;;21.42;12.63;;;;;;;5.66;100.00;99245.44;6357233;27;20464;-75
2022/12/09 10:35:59;;;;;;;14.70;7.10;;;;;;;5.62;100.00;99239.63;6375585;27;20039;-75
2022/12/09 10:39:00;;;;;;;21.85;10.82;;;;;;;5.64;100.00;99231.75;6374229;27;20043;-75
2022/12/09 10:45:21;;;;;;;14.27;7.68;;;;;;;5.71;100.00;99235.69;6374070;27;20052;-75
2022/12/09 10:48:51;;;;;;;16.05;7.93;;;;;;;5.73;100.00;99236.44;6373887;27;20410;-75
2022/12/09 10:51:54;;;;;;;26.45;12.55;;;;;;;5.83;100.00;99227.25;6374105;27;20168;-75
2022/12/09 10:54:55;;;;;;;;;;;;;;;5.78;100.00;99234.44;6375626;27;20410;-75
2022/12/09 10:58:09;;;;;;;16.33;6.93;;;;;;;5.76;100.00;99235.44;6373959;27;19984;-75
2022/12/09 11:01:13;;;;;;;16.17;6.38;;;;;;;5.85;100.00;99233.19;6373919;27;20039;-75
2022/12/09 11:04:24;;;;;;;13.80;5.25;;;;;;;5.83;100.00;99231.63;6373884;27;20061;-75
2022/12/09 11:07:26;;;;;;;10.38;5.20;;;;;;;5.91;100.00;99220.81;6373624;27;20387;-75
2022/12/09 11:10:28;;;;;;;;;;;;;;;5.87;100.00;99222.75;6373884;27;20055;-75
2022/12/09 11:13:37;;;;;;;15.57;7.22;;;;;;;5.80;100.00;99217.06;6373482;27;19919;-75
2022/12/09 11:16:38;;;;;;;14.50;5.50;;;;;;;5.95;100.00;99217.16;6373542;27;20047;-75
2022/12/09 11:19:39;;;;;;;12.38;7.25;;;;;;;5.95;100.00;99210.25;6373238;27;20043;-75
2022/12/09 11:22:44;;;;;;;22.90;8.10;;;;;;;5.99;100.00;99214.34;6373520;27;20046;-75
2022/12/09 11:25:56;;;;;;;11.88;5.63;;;;;;;6.05;100.00;99211.41;6373326;27;20145;-75
2022/12/09 11:29:04;;;;;;;9.43;4.68;;;;;;;5.91;100.00;99198.38;6373178;27;20067;-75
2022/12/09 11:32:12;;;;;;;8.13;4.63;;;;;;;6.00;100.00;99197.03;6373360;27;20058;-75
2022/12/09 11:35:37;;;;;;;10.68;5.72;;;;;;;6.04;100.00;99188.19;6373155;27;20042;-75
2022/12/09 11:38:45;;;;;;;13.52;5.22;;;;;;;5.96;100.00;99188.59;6371754;27;20068;-76
2022/12/09 11:45:32;;;;;;;7.93;4.32;;;;;;;5.99;100.00;99182.41;6374133;27;20414;-75
2022/12/09 11:48:34;;;;;;;12.73;6.30;;;;;;;5.93;100.00;99185.31;6372765;27;20047;-75
2022/12/09 11:51:39;;;;;;;13.43;6.33;;;;;;;6.01;100.00;99175.41;6372589;27;20039;-75
2022/12/09 11:54:48;;;;;;;12.68;6.13;;;;;;;5.93;100.00;99172.38;6372511;27;20498;-75
2022/12/09 11:57:57;;;;;;;10.70;5.45;;;;;;;5.96;100.00;99170.47;6372170;27;20066;-75
2022/12/09 12:01:16;;;;;;;12.75;5.68;;;;;;;5.96;100.00;99173.06;6355127;27;20051;-74
2022/12/09 12:04:43;;;;;;;17.00;7.50;;;;;;;5.94;100.00;99161.94;6372168;27;20039;-74
2022/12/09 12:08:25;;;;;;;14.07;7.30;;;;;;;5.95;100.00;99162.78;6371939;27;20039;-74
2022/12/09 12:11:30;;;;;;;11.17;6.10;;;;;;;5.98;100.00;99163.47;6361179;27;20442;-74
2022/12/09 12:14:34;;;;;;;20.35;6.30;;;;;;;5.88;100.00;99151.91;6371906;27;20434;-75
2022/12/09 12:17:42;;;;;;;11.60;5.82;;;;;;;5.99;100.00;99149.59;6371936;27;20035;-75
2022/12/09 12:21:17;;;;;;;13.07;6.20;;;;;;;6.01;100.00;99139.16;6371490;27;20375;-75
2022/12/09 12:24:49;;;;;;;10.10;5.38;;;;;;;5.90;100.00;99133.72;6371622;27;20031;-74
2022/12/09 12:27:59;;;;;;;16.25;7.95;;;;;;;5.92;100.00;99124.94;6373020;27;20509;-74
2022/12/09 12:31:07;;;;;;;10.95;5.93;;;;;;;5.90;100.00;99125.94;6371539;27;20043;-74
2022/12/09 12:34:27;;;;;;;15.93;6.93;;;;;;;5.95;100.00;99114.44;6371661;27;20054;-74
2022/12/09 12:38:09;;;;;;;10.60;6.32;;;;;;;5.94;100.00;99101.56;6371448;27;20039;-75
2022/12/09 12:41:20;;;;;;;17.65;7.65;;;;;;;6.00;100.00;99093.47;6371329;27;20039;-74
2022/12/09 12:48:12;;;;;;;12.35;6.65;;;;;;;6.08;100.00;99093.84;6372580;27;20046;-77
2022/12/09 12:51:12;;;;;;;24.27;9.80;;;;;;;6.20;100.00;99087.97;6353851;27;20415;-77
2022/12/09 12:54:22;;;;;;;9.82;5.05;;;;;;;6.16;100.00;99088.25;6371317;27;20047;-77
2022/12/09 12:57:31;;;;;;;18.67;7.68;;;;;;;6.10;100.00;99086.00;6371348;27;20064;-77
2022/12/09 13:00:59;;;;;;;12.88;6.60;;;;;;;6.11;100.00;99085.91;6372308;27;20039;-76
2022/12/09 13:04:21;;;;;;;8.63;5.40;;;;;;;6.12;100.00;99086.75;6371005;27;20099;-77
2022/12/09 13:07:44;;;;;;;13.85;6.43;;;;;;;6.13;100.00;99080.63;6372573;27;20039;-77
2022/12/09 13:10:49;;;;;;;10.27;5.43;;;;;;;6.13;100.00;99075.47;6370988;28;20054;-77
2022/12/09 13:13:54;;;;;;;9.95;5.43;;;;;;;6.09;100.00;99064.44;6353941;28;20142;-77
2022/12/09 13:16:55;;;;;;;13.13;5.60;;;;;;;6.12;100.00;99058.25;6371022;28;20043;-77
2022/12/09 13:19:59;;;;;;;10.25;5.45;;;;;;;6.20;100.00;99059.47;6371034;28;20122;-77
2022/12/09 13:23:25;;;;;;;12.40;5.13;;;;;;;6.20;100.00;99043.94;6372267;27;20043;-77
2022/12/09 13:26:39;;;;;;;13.45;5.32;;;;;;;6.11;100.00;99046.22;6371954;28;20130;-77
2022/12/09 13:29:47;;;;;;;13.10;6.32;;;;;;;6.05;100.00;99037.03;6372005;27;20046;-77
2022/12/09 13:33:03;;;;;;;8.70;5.30;;;;;;;6.08;100.00;99043.81;6370869;28;20039;-77
2022/12/09 13:36:13;;;;;;;11.70;5.70;;;;;;;5.94;100.00;99035.06;6370679;28;20425;-75
2022/12/09 13:39:39;;;;;;;16.02;7.68;;;;;;;6.05;100.00;99034.47;6371685;27;20070;-76
2022/12/09 13:42:55;;;;;;;18.33;6.72;;;;;;;6.01;100.00;99030.38;6370543;28;20088;-75
2022/12/09 13:46:00;;;;;;;8.77;5.72;;;;;;;5.92;100.00;99036.06;6371720;28;20505;-74
2022/12/09 13:49:18;;;;;;;11.48;6.05;;;;;;;5.89;100.00;99031.91;6371753;27;20047;-74
2022/12/09 13:52:45;;;;;;;18.80;8.00;;;;;;;5.84;100.00;99033.91;6371582;27;20046;-74
2022/12/09 13:56:04;;;;;;;8.95;5.55;;;;;;;5.73;100.00;99036.31;6364641;28;20141;-74
2022/12/09 13:59:16;;;;;;;12.25;5.63;;;;;;;5.95;100.00;99034.19;6370340;28;20066;-77
2022/12/09 14:02:37;;;;;;;15.32;6.70;;;;;;;5.91;100.00;99017.13;6374015;27;20126;-77
2022/12/09 14:05:38;;;;;;;23.05;6.70;;;;;;;5.91;100.00;99016.28;6376490;27;20043;-77
2022/12/09 14:08:47;;;;;;;17.20;7.00;;;;;;;6.00;100.00;99011.44;6374965;27;20116;-77
2022/12/09 14:11:53;;;;;;;18.02;6.53;;;;;;;5.96;100.00;99004.75;6376320;27;20035;-77
2022/12/09 14:15:18;;;;;;;12.10;6.95;;;;;;;5.92;100.00;99000.66;6374856;27;20058;-77
2022/12/09 14:18:31;;;;;;;12.88;7.07;;;;;;;5.96;100.00;98999.59;6375898;27;20510;-77
2022/12/09 14:21:32;;;;;;;20.30;8.15;;;;;;;5.98;100.00;98992.56;6374804;27;20047;-75
2022/12/09 14:24:34;;;;;;;16.48;7.20;;;;;;;6.03;100.00;99000.06;6375995;27;20089;-77
2022/12/09 14:27:34;;;;;;;21.05;7.28;;;;;;;6.00;100.00;98982.94;6374626;27;20051;-77
2022/12/09 14:30:46;;;;;;;17.85;8.20;;;;;;;6.09;100.00;98978.13;6375737;27;20402;-77
2022/12/09 14:33:47;;;;;;;16.98;6.97;;;;;;;5.98;100.00;98968.44;6375548;27;20502;-77
2022/12/09 14:36:56;;;;;;;13.55;7.38;;;;;;;5.98;100.00;98958.91;6376023;27;20039;-77